createdAt,value
2019-03-16T00:03:27.777Z,94.70
2019-03-16T00:06:17.221Z,94.70
2019-03-16T00:09:07.308Z,93.90
2019-03-16T00:11:37.282Z,94.20
2019-03-16T00:14:26.567Z,94.20
2019-03-16T00:17:23.248Z,94.30
2019-03-16T00:20:25.294Z,94.70
2019-03-16T00:23:08.139Z,94.70
2019-03-16T00:25:57.521Z,94.70
2019-03-16T00:28:27.332Z,94.30
2019-03-16T00:31:16.723Z,94.10
2019-03-16T00:34:06.271Z,94.00
2019-03-16T00:36:55.850Z,94.10
2019-03-16T00:39:45.258Z,94.20
2019-03-16T00:42:34.569Z,93.50
2019-03-16T00:45:23.882Z,93.50
2019-03-16T00:48:13.265Z,93.40
2019-03-16T00:50:43.342Z,93.60
2019-03-16T00:53:32.776Z,93.60
2019-03-16T00:56:22.392Z,93.70
2019-03-16T00:59:11.726Z,93.90
2019-03-16T01:02:01.228Z,94.30
2019-03-16T01:04:31.141Z,94.10
2019-03-16T01:07:20.429Z,94.20
2019-03-16T01:10:09.854Z,94.00
2019-03-16T01:12:39.771Z,94.20
2019-03-16T01:15:29.128Z,93.90
2019-03-16T01:17:58.989Z,93.10
2019-03-16T01:20:48.375Z,92.90
2019-03-16T01:23:18.217Z,93.00
2019-03-16T01:25:48.160Z,92.40
2019-03-16T01:28:19.263Z,92.20
2019-03-16T01:31:08.564Z,92.00
2019-03-16T01:33:57.827Z,92.00
2019-03-16T01:36:47.202Z,91.60
2019-03-16T01:39:17.038Z,91.40
2019-03-16T01:41:46.922Z,91.30
2019-03-16T01:44:36.236Z,91.20
2019-03-16T01:47:06.111Z,91.00
2019-03-16T01:49:36.127Z,91.20
2019-03-16T01:52:06.066Z,90.90
2019-03-16T01:54:55.328Z,90.80
2019-03-16T01:57:25.233Z,90.90
2019-03-16T02:00:14.818Z,90.80
2019-03-16T02:03:05.671Z,90.90
2019-03-16T02:05:35.534Z,90.50
2019-03-16T02:08:24.903Z,90.00
2019-03-16T02:10:54.927Z,89.60
2019-03-16T02:13:44.663Z,89.40
2019-03-16T02:16:14.622Z,88.70
2019-03-16T02:18:44.422Z,88.80
2019-03-16T02:21:14.439Z,88.40
2019-03-16T02:23:44.406Z,88.50
2019-03-16T02:26:33.696Z,87.60
2019-03-16T02:29:23.039Z,88.10
2019-03-16T02:32:12.600Z,86.40
2019-03-16T02:34:42.553Z,86.80
2019-03-16T02:37:57.212Z,85.50
2019-03-16T02:40:27.257Z,85.50
2019-03-16T02:42:58.521Z,84.40
2019-03-16T02:48:04.512Z,83.40
2019-03-16T02:50:53.807Z,83.20
2019-03-16T02:53:43.159Z,83.20
2019-03-16T02:56:32.487Z,82.40
2019-03-16T02:59:22.068Z,82.40
2019-03-16T03:02:11.556Z,81.50
2019-03-16T03:05:00.829Z,81.20
2019-03-16T03:07:31.594Z,80.50
2019-03-16T03:10:21.217Z,80.00
2019-03-16T03:12:51.266Z,79.80
2019-03-16T03:15:21.175Z,78.50
2019-03-16T03:17:51.390Z,78.80
2019-03-16T03:20:21.283Z,79.10
2019-03-16T03:23:04.895Z,78.70
2019-03-16T03:25:54.258Z,78.80
2019-03-16T03:28:43.556Z,78.70
2019-03-16T03:31:33.047Z,79.90
2019-03-16T03:34:03.198Z,79.50
2019-03-16T03:36:52.779Z,80.20
2019-03-16T03:39:42.097Z,80.30
2019-03-16T03:42:31.482Z,81.80
2019-03-16T03:45:02.096Z,81.40
2019-03-16T03:47:31.956Z,81.80
2019-03-16T03:50:02.069Z,81.60
2019-03-16T03:55:46.364Z,82.80
2019-03-16T03:58:16.841Z,83.30
2019-03-16T04:00:47.201Z,83.20
2019-03-16T04:03:17.274Z,83.20
2019-03-16T04:05:47.539Z,84.00
2019-03-16T04:08:37.581Z,83.80
2019-03-16T04:11:27.029Z,84.10
2019-03-16T04:13:56.843Z,84.20
2019-03-16T04:16:26.711Z,84.70
2019-03-16T04:18:56.670Z,85.40
2019-03-16T04:21:46.406Z,85.30
2019-03-16T04:24:16.471Z,85.50
2019-03-16T04:26:46.961Z,85.50
2019-03-16T04:29:36.304Z,85.50
2019-03-16T04:32:25.839Z,85.60
2019-03-16T04:35:15.212Z,85.60
2019-03-16T04:37:45.249Z,85.90
2019-03-16T04:40:15.129Z,86.70
2019-03-16T04:42:45.040Z,86.50
2019-03-16T04:45:34.600Z,86.70
2019-03-16T04:48:04.506Z,86.60
2019-03-16T04:50:54.206Z,86.60
2019-03-16T04:53:27.682Z,86.20
2019-03-16T04:55:57.467Z,86.40
2019-03-16T04:58:47.353Z,86.40
2019-03-16T05:01:20.488Z,86.70
2019-03-16T05:04:12.272Z,86.90
2019-03-16T05:07:01.610Z,86.20
2019-03-16T05:09:51.438Z,86.10
2019-03-16T05:12:21.397Z,85.80
2019-03-16T05:14:51.415Z,85.70
2019-03-16T05:17:41.091Z,85.10
2019-03-16T05:20:31.141Z,85.00
2019-03-16T05:23:01.523Z,85.70
2019-03-16T05:25:50.894Z,84.60
2019-03-16T05:28:40.266Z,84.60
2019-03-16T05:31:29.592Z,84.20
2019-03-16T05:34:18.990Z,84.20
2019-03-16T05:37:08.678Z,84.10
2019-03-16T05:42:32.222Z,83.90
2019-03-16T05:45:21.617Z,83.90
2019-03-16T05:47:51.826Z,84.50
2019-03-16T05:50:41.243Z,84.50
2019-03-16T05:53:30.616Z,84.80
2019-03-16T05:56:19.966Z,85.40
2019-03-16T05:58:49.770Z,85.10
2019-03-16T06:01:39.856Z,85.10
2019-03-16T06:04:29.222Z,85.40
2019-03-16T06:07:18.835Z,85.90
2019-03-16T06:10:08.541Z,85.60
2019-03-16T06:12:57.832Z,86.40
2019-03-16T06:15:47.249Z,85.60
2019-03-16T06:18:36.847Z,86.00
2019-03-16T06:21:26.575Z,86.30
2019-03-16T06:24:08.615Z,85.70
2019-03-16T06:26:38.489Z,85.10
2019-03-16T06:29:28.098Z,84.90
2019-03-16T06:32:17.609Z,84.10
2019-03-16T06:34:47.690Z,84.50
2019-03-16T06:39:52.251Z,83.10
2019-03-16T06:42:22.163Z,83.00
2019-03-16T06:44:52.022Z,83.10
2019-03-16T06:47:23.145Z,82.50
2019-03-16T06:50:11.666Z,81.90
2019-03-16T06:52:41.661Z,81.60
2019-03-16T06:55:31.160Z,80.00
2019-03-16T06:58:20.591Z,80.10
2019-03-16T07:01:10.053Z,78.70
2019-03-16T07:03:39.972Z,78.00
2019-03-16T07:06:29.322Z,78.20
2019-03-16T07:08:59.249Z,78.30
2019-03-16T07:11:29.281Z,76.80
2019-03-16T07:14:00.649Z,76.20
2019-03-16T07:16:30.794Z,76.70
2019-03-16T07:19:00.746Z,76.20
2019-03-16T07:21:30.990Z,76.50
2019-03-16T07:24:00.983Z,76.40
2019-03-16T07:26:30.953Z,76.60
2019-03-16T07:29:00.918Z,75.90
2019-03-16T07:31:32.081Z,75.60
2019-03-16T07:34:04.676Z,75.90
2019-03-16T07:36:36.197Z,76.30
2019-03-16T07:39:28.427Z,75.40
2019-03-16T07:47:43.137Z,74.90
2019-03-16T07:50:32.979Z,74.00
2019-03-16T07:55:55.749Z,73.40
2019-03-16T07:58:25.883Z,73.40
2019-03-16T08:00:58.609Z,72.10
2019-03-16T08:06:19.087Z,71.40
2019-03-16T08:08:49.215Z,72.20
2019-03-16T08:11:38.998Z,70.50
2019-03-16T08:14:09.332Z,70.60
2019-03-16T08:16:59.089Z,70.70
2019-03-16T08:19:30.107Z,70.20
2019-03-16T08:22:23.546Z,70.70
2019-03-16T08:25:15.251Z,71.40
2019-03-16T08:27:58.672Z,71.50
2019-03-16T08:30:31.058Z,70.70
2019-03-16T08:33:01.212Z,70.20
2019-03-16T08:35:31.716Z,69.60
2019-03-16T08:41:02.292Z,65.90
2019-03-16T08:43:53.320Z,67.50
2019-03-16T08:46:44.014Z,67.00
2019-03-16T08:49:33.444Z,67.10
2019-03-16T08:52:04.294Z,66.40
2019-03-16T08:54:37.838Z,66.40
2019-03-16T08:57:28.918Z,66.00
2019-03-16T09:00:18.415Z,63.30
2019-03-16T09:03:08.026Z,62.60
2019-03-16T09:05:38.234Z,63.70
2019-03-16T09:08:30.316Z,63.70
2019-03-16T09:11:20.579Z,62.80
2019-03-16T09:13:51.198Z,63.90
2019-03-16T09:16:22.001Z,63.50
2019-03-16T09:18:52.878Z,63.60
2019-03-16T09:21:23.357Z,63.80
2019-03-16T09:23:56.014Z,63.80
2019-03-16T09:26:26.212Z,63.30
2019-03-16T09:29:15.601Z,65.20
2019-03-16T09:31:45.673Z,63.90
2019-03-16T09:34:35.573Z,65.20
2019-03-16T09:37:25.057Z,63.80
2019-03-16T09:40:14.668Z,64.60
2019-03-16T09:43:04.119Z,65.10
2019-03-16T09:45:34.195Z,65.20
2019-03-16T09:48:04.511Z,66.10
2019-03-16T09:50:54.269Z,67.00
2019-03-16T09:53:44.356Z,69.40
2019-03-16T09:56:14.686Z,70.00
2019-03-16T09:58:44.693Z,71.20
2019-03-16T10:01:22.919Z,73.30
2019-03-16T10:03:53.801Z,73.60
2019-03-16T10:06:24.009Z,74.40
2019-03-16T10:09:13.970Z,74.20
2019-03-16T10:12:03.433Z,74.20
2019-03-16T10:14:53.075Z,74.30
2019-03-16T10:17:42.487Z,74.40
2019-03-16T10:20:31.984Z,72.20
2019-03-16T10:23:14.519Z,73.20
2019-03-16T10:26:04.216Z,73.70
2019-03-16T10:28:53.846Z,73.20
2019-03-16T10:31:24.989Z,73.90
2019-03-16T10:34:09.696Z,72.70
2019-03-16T10:36:59.478Z,71.90
2019-03-16T10:39:49.313Z,71.70
2019-03-16T10:43:01.406Z,70.90
2019-03-16T10:45:31.685Z,69.10
2019-03-16T10:48:21.345Z,66.30
2019-03-16T10:51:05.334Z,67.00
2019-03-16T10:53:36.013Z,66.10
2019-03-16T10:56:07.465Z,66.80
2019-03-16T10:58:38.342Z,65.50
2019-03-16T11:01:28.287Z,65.50
2019-03-16T11:04:17.628Z,63.20
2019-03-16T11:07:07.840Z,62.20
2019-03-16T11:09:38.317Z,61.90
2019-03-16T11:12:08.314Z,61.20
2019-03-16T11:14:58.116Z,60.40
2019-03-16T11:17:29.792Z,59.20
2019-03-16T11:19:59.982Z,58.90
2019-03-16T11:25:20.132Z,59.20
2019-03-16T11:27:51.062Z,59.40
2019-03-16T11:30:25.438Z,58.70
2019-03-16T11:41:08.297Z,57.70
2019-03-16T11:43:49.335Z,55.80
2019-03-16T11:46:20.091Z,55.10
2019-03-16T11:49:10.323Z,53.50
2019-03-16T11:51:40.684Z,51.80
2019-03-16T11:54:15.258Z,53.00
2019-03-16T11:56:45.453Z,53.00
2019-03-16T11:59:35.421Z,53.10
2019-03-16T12:02:07.077Z,51.80
2019-03-16T12:04:38.030Z,53.00
2019-03-16T12:13:17.318Z,50.40
2019-03-16T12:19:21.010Z,49.40
2019-03-16T12:21:51.679Z,49.80
2019-03-16T12:24:34.750Z,48.60
2019-03-16T12:30:14.582Z,48.70
2019-03-16T12:33:04.414Z,50.20
2019-03-16T12:35:54.381Z,49.20
2019-03-16T12:38:44.375Z,48.50
2019-03-16T12:41:53.914Z,48.00
2019-03-16T12:45:10.036Z,48.50
2019-03-16T12:50:46.262Z,48.50
2019-03-16T12:53:20.080Z,48.60
2019-03-16T12:55:50.791Z,48.50
2019-03-16T12:58:41.352Z,48.60
2019-03-16T13:01:12.738Z,47.60
2019-03-16T13:04:22.396Z,46.90
2019-03-16T13:09:54.492Z,47.20
2019-03-16T13:12:25.236Z,46.00
2019-03-16T13:20:53.953Z,49.20
2019-03-16T13:47:48.450Z,48.90
2019-03-16T13:53:18.501Z,49.80
2019-03-16T13:55:49.195Z,48.80
2019-03-16T13:58:19.984Z,48.50
2019-03-16T14:06:30.030Z,49.40
2019-03-16T14:11:41.229Z,48.50
2019-03-16T14:14:13.426Z,48.50
2019-03-16T14:17:08.870Z,48.60
2019-03-16T17:43:48.663Z,52.90
2019-03-16T17:46:42.210Z,53.70
2019-03-16T17:51:51.189Z,53.50
2019-03-16T17:54:22.934Z,53.50
2019-03-16T17:59:54.913Z,53.90
2019-03-16T18:02:51.291Z,53.90
2019-03-16T18:05:29.284Z,55.40
2019-03-16T18:12:19.180Z,54.70
2019-03-16T18:14:50.307Z,54.90
2019-03-16T18:17:21.103Z,54.50
2019-03-16T18:20:00.454Z,55.30
2019-03-16T18:22:35.620Z,55.50
2019-03-16T18:25:08.340Z,54.80
2019-03-16T18:27:42.440Z,54.20
2019-03-16T18:30:14.707Z,54.30
2019-03-16T18:32:45.487Z,54.50
2019-03-16T18:35:16.095Z,55.40
2019-03-16T18:37:47.294Z,55.30
2019-03-16T18:40:17.876Z,55.30
2019-03-16T18:42:48.324Z,55.30
2019-03-16T18:45:19.746Z,55.20
2019-03-16T18:47:54.677Z,55.20
2019-03-16T18:50:25.307Z,55.20
2019-03-16T18:52:55.788Z,55.60
2019-03-16T18:55:25.920Z,56.40
2019-03-16T18:58:01.004Z,56.30
2019-03-16T19:00:33.425Z,56.60
2019-03-16T19:03:03.675Z,56.70
2019-03-16T19:05:35.834Z,56.80
2019-03-16T19:10:42.125Z,57.20
2019-03-16T19:13:12.684Z,58.50
2019-03-16T19:15:45.606Z,59.20
2019-03-16T19:18:18.065Z,57.70
2019-03-16T19:20:49.944Z,57.90
2019-03-16T19:25:54.461Z,58.20
2019-03-16T19:28:24.919Z,59.10
2019-03-16T19:30:56.594Z,57.60
2019-03-16T19:33:27.171Z,57.00
2019-03-16T19:36:02.466Z,57.40
2019-03-16T19:38:36.942Z,57.60
2019-03-16T19:41:08.013Z,57.00
2019-03-16T19:43:40.707Z,56.90
2019-03-16T19:46:12.840Z,57.30
2019-03-16T19:48:46.979Z,57.00
2019-03-16T19:51:20.487Z,56.50
2019-03-16T19:53:53.458Z,56.30
2019-03-16T19:56:27.119Z,56.80
2019-03-16T19:59:03.474Z,56.40
2019-03-16T20:01:34.654Z,56.20
2019-03-16T20:04:05.395Z,55.50
2019-03-16T20:06:43.921Z,55.20
2019-03-16T20:09:27.736Z,55.20
2019-03-16T20:37:43.944Z,55.90
2019-03-16T20:40:16.171Z,55.10
2019-03-16T20:42:47.381Z,55.20
2019-03-16T20:45:19.085Z,55.20
2019-03-16T20:47:50.472Z,55.30
2019-03-16T20:50:21.309Z,55.30
2019-03-16T20:52:55.233Z,55.30
2019-03-16T20:55:26.109Z,55.40
2019-03-16T20:57:58.240Z,55.30
2019-03-16T21:00:32.637Z,55.40
2019-03-16T21:03:15.512Z,55.40
2019-03-16T21:05:38.260Z,55.40
2019-03-16T21:08:10.407Z,55.40
2019-03-16T21:10:47.611Z,55.40
2019-03-16T21:13:14.452Z,55.40
2019-03-16T21:15:49.387Z,55.40
2019-03-16T21:18:20.100Z,55.40
2019-03-16T21:20:52.265Z,55.40
2019-03-16T21:23:23.015Z,54.90
2019-03-16T21:25:55.515Z,55.50
2019-03-16T21:28:26.283Z,55.40
2019-03-16T21:31:08.946Z,55.30
2019-03-16T21:33:39.839Z,55.30
2019-03-16T21:36:11.765Z,55.30
2019-03-16T21:38:42.363Z,54.60
2019-03-16T21:41:37.182Z,54.20
2019-03-16T21:44:09.748Z,54.10
2019-03-16T21:46:48.718Z,54.00
2019-03-16T21:50:18.966Z,54.00
2019-03-16T21:53:43.628Z,54.00
2019-03-16T21:56:18.402Z,54.20
2019-03-16T21:58:53.748Z,53.80
2019-03-16T22:26:17.311Z,52.40
2019-03-16T22:32:27.640Z,52.00
2019-03-16T22:34:58.199Z,51.90
2019-03-16T22:37:42.022Z,51.70
2019-03-16T22:40:12.263Z,51.60
2019-03-16T22:42:45.644Z,50.80
2019-03-16T22:45:17.436Z,50.70
2019-03-16T22:47:47.683Z,50.50
2019-03-16T22:52:56.482Z,50.70
2019-03-16T22:55:27.342Z,50.60
2019-03-16T22:57:58.126Z,50.10
2019-03-16T23:00:52.466Z,50.40
2019-03-16T23:06:10.928Z,50.10
2019-03-16T23:08:50.421Z,50.30
2019-03-16T23:11:23.793Z,50.50
2019-03-16T23:13:54.997Z,50.70
2019-03-16T23:16:27.798Z,50.70
2019-03-16T23:18:58.391Z,50.90
2019-03-16T23:21:28.770Z,51.00
2019-03-16T23:23:59.323Z,51.60
2019-03-16T23:26:38.095Z,51.40
2019-03-16T23:29:10.595Z,51.20
2019-03-16T23:31:40.783Z,51.40
2019-03-16T23:34:19.163Z,51.80
2019-03-16T23:36:45.964Z,51.60
2019-03-16T23:39:19.104Z,51.80
2019-03-16T23:42:07.069Z,51.40
2019-03-16T23:44:37.246Z,52.00
2019-03-16T23:47:07.754Z,50.90
2019-03-16T23:49:37.954Z,50.40
2019-03-16T23:52:36.785Z,51.80
2019-03-16T23:55:06.848Z,51.20
2019-03-16T23:57:37.152Z,50.90
